sensor_id;sensor_type;location;lat;lon;timestamp;P1;durP1;ratioP1;P2;durP2;ratioP2
1685;SDS011;840;47.980;7.830;2023-03-01T00:01:36;17.97;;;13.43;;
1685;SDS011;840;47.980;7.830;2023-03-01T00:04:04;18.63;;;14.37;;
1685;SDS011;840;47.980;7.830;2023-03-01T00:06:31;15.93;;;14.13;;
1685;SDS011;840;47.980;7.830;2023-03-01T00:08:58;16.60;;;12.97;;
1685;SDS011;840;47.980;7.830;2023-03-01T00:11:26;16.40;;;14.07;;
1685;SDS011;840;47.980;7.830;2023-03-01T00:13:55;17.07;;;14.33;;
1685;SDS011;840;47.980;7.830;2023-03-01T00:16:26;15.30;;;13.80;;
1685;SDS011;840;47.980;7.830;2023-03-01T00:18:56;21.00;;;14.63;;
1685;SDS011;840;47.980;7.830;2023-03-01T00:21:24;18.73;;;14.23;;
1685;SDS011;840;47.980;7.830;2023-03-01T00:23:52;16.10;;;14.03;;
1685;SDS011;840;47.980;7.830;2023-03-01T00:26:20;17.13;;;13.97;;
1685;SDS011;840;47.980;7.830;2023-03-01T00:28:48;15.00;;;13.50;;
1685;SDS011;840;47.980;7.830;2023-03-01T00:31:18;23.03;;;14.37;;
1685;SDS011;840;47.980;7.830;2023-03-01T00:34:02;13.73;;;12.17;;
1685;SDS011;840;47.980;7.830;2023-03-01T00:36:31;17.10;;;13.77;;
1685;SDS011;840;47.980;7.830;2023-03-01T00:39:00;23.90;;;13.77;;
1685;SDS011;840;47.980;7.830;2023-03-01T00:41:29;14.40;;;12.93;;
1685;SDS011;840;47.980;7.830;2023-03-01T00:43:56;14.93;;;13.30;;
1685;SDS011;840;47.980;7.830;2023-03-01T00:46:24;16.57;;;13.00;;
1685;SDS011;840;47.980;7.830;2023-03-01T00:48:52;13.70;;;12.30;;
1685;SDS011;840;47.980;7.830;2023-03-01T00:51:24;13.93;;;11.60;;
1685;SDS011;840;47.980;7.830;2023-03-01T00:53:52;14.30;;;12.80;;
1685;SDS011;840;47.980;7.830;2023-03-01T00:56:20;13.30;;;10.93;;
1685;SDS011;840;47.980;7.830;2023-03-01T00:58:47;16.87;;;13.40;;
1685;SDS011;840;47.980;7.830;2023-03-01T01:01:14;14.40;;;13.00;;
1685;SDS011;840;47.980;7.830;2023-03-01T01:03:46;14.40;;;13.00;;
1685;SDS011;840;47.980;7.830;2023-03-01T01:06:16;12.90;;;11.53;;
1685;SDS011;840;47.980;7.830;2023-03-01T01:08:48;14.23;;;12.70;;
1685;SDS011;840;47.980;7.830;2023-03-01T01:11:16;16.90;;;12.77;;
1685;SDS011;840;47.980;7.830;2023-03-01T01:13:44;14.27;;;12.87;;
1685;SDS011;840;47.980;7.830;2023-03-01T01:16:13;15.40;;;13.40;;
1685;SDS011;840;47.980;7.830;2023-03-01T01:18:40;13.80;;;11.50;;
1685;SDS011;840;47.980;7.830;2023-03-01T01:21:08;17.33;;;12.07;;
1685;SDS011;840;47.980;7.830;2023-03-01T01:23:36;15.60;;;13.03;;
1685;SDS011;840;47.980;7.830;2023-03-01T01:26:07;16.37;;;13.97;;
1685;SDS011;840;47.980;7.830;2023-03-01T01:28:36;16.00;;;13.57;;
1685;SDS011;840;47.980;7.830;2023-03-01T01:31:03;15.60;;;12.20;;
1685;SDS011;840;47.980;7.830;2023-03-01T01:33:31;12.10;;;10.73;;
1685;SDS011;840;47.980;7.830;2023-03-01T01:35:58;14.83;;;12.80;;
1685;SDS011;840;47.980;7.830;2023-03-01T01:38:25;19.80;;;12.80;;
1685;SDS011;840;47.980;7.830;2023-03-01T01:40:53;16.00;;;12.03;;
1685;SDS011;840;47.980;7.830;2023-03-01T01:43:26;13.77;;;12.47;;
1685;SDS011;840;47.980;7.830;2023-03-01T01:45:55;18.97;;;12.93;;
1685;SDS011;840;47.980;7.830;2023-03-01T01:48:28;19.37;;;13.30;;
1685;SDS011;840;47.980;7.830;2023-03-01T01:51:07;13.90;;;11.63;;
1685;SDS011;840;47.980;7.830;2023-03-01T01:53:37;19.40;;;12.90;;
1685;SDS011;840;47.980;7.830;2023-03-01T01:56:06;13.30;;;11.40;;
1685;SDS011;840;47.980;7.830;2023-03-01T01:58:37;13.90;;;11.67;;
1685;SDS011;840;47.980;7.830;2023-03-01T02:01:06;14.53;;;12.00;;
1685;SDS011;840;47.980;7.830;2023-03-01T02:03:37;14.70;;;12.67;;
1685;SDS011;840;47.980;7.830;2023-03-01T02:06:11;14.80;;;12.87;;
1685;SDS011;840;47.980;7.830;2023-03-01T02:08:44;14.07;;;12.52;;
1685;SDS011;840;47.980;7.830;2023-03-01T02:11:13;16.13;;;12.47;;
1685;SDS011;840;47.980;7.830;2023-03-01T02:13:45;15.87;;;14.27;;
1685;SDS011;840;47.980;7.830;2023-03-01T02:16:18;15.70;;;12.57;;
1685;SDS011;840;47.980;7.830;2023-03-01T02:18:48;19.30;;;14.10;;
1685;SDS011;840;47.980;7.830;2023-03-01T02:21:22;16.45;;;11.60;;
1685;SDS011;840;47.980;7.830;2023-03-01T02:24:04;17.73;;;13.87;;
1685;SDS011;840;47.980;7.830;2023-03-01T02:26:48;14.13;;;12.05;;
1685;SDS011;840;47.980;7.830;2023-03-01T02:29:24;14.77;;;13.03;;
1685;SDS011;840;47.980;7.830;2023-03-01T02:31:57;20.50;;;12.37;;
1685;SDS011;840;47.980;7.830;2023-03-01T02:34:30;19.00;;;12.67;;
1685;SDS011;840;47.980;7.830;2023-03-01T02:37:04;12.67;;;10.90;;
1685;SDS011;840;47.980;7.830;2023-03-01T02:39:37;14.60;;;12.40;;
1685;SDS011;840;47.980;7.830;2023-03-01T02:42:16;17.67;;;13.00;;
1685;SDS011;840;47.980;7.830;2023-03-01T02:44:50;13.70;;;11.40;;
1685;SDS011;840;47.980;7.830;2023-03-01T02:47:20;14.77;;;12.75;;
1685;SDS011;840;47.980;7.830;2023-03-01T02:49:50;14.67;;;12.00;;
1685;SDS011;840;47.980;7.830;2023-03-01T02:52:22;18.43;;;13.33;;
1685;SDS011;840;47.980;7.830;2023-03-01T02:55:03;16.63;;;12.13;;
1685;SDS011;840;47.980;7.830;2023-03-01T02:57:35;15.00;;;12.53;;
1685;SDS011;840;47.980;7.830;2023-03-01T03:00:10;15.63;;;12.10;;
1685;SDS011;840;47.980;7.830;2023-03-01T03:02:47;16.50;;;12.95;;
1685;SDS011;840;47.980;7.830;2023-03-01T03:05:18;18.47;;;12.97;;
1685;SDS011;840;47.980;7.830;2023-03-01T03:07:51;14.93;;;12.77;;
1685;SDS011;840;47.980;7.830;2023-03-01T03:10:23;13.70;;;12.00;;
1685;SDS011;840;47.980;7.830;2023-03-01T03:12:55;18.47;;;13.50;;
1685;SDS011;840;47.980;7.830;2023-03-01T03:15:44;18.65;;;12.93;;
1685;SDS011;840;47.980;7.830;2023-03-01T03:18:12;14.43;;;12.80;;
1685;SDS011;840;47.980;7.830;2023-03-01T03:21:01;15.10;;;11.80;;
1685;SDS011;840;47.980;7.830;2023-03-01T03:23:39;12.57;;;11.32;;
1685;SDS011;840;47.980;7.830;2023-03-01T03:26:09;13.90;;;12.50;;
1685;SDS011;840;47.980;7.830;2023-03-01T03:28:52;17.02;;;13.98;;
1685;SDS011;840;47.980;7.830;2023-03-01T03:34:21;14.32;;;12.63;;
1685;SDS011;840;47.980;7.830;2023-03-01T03:36:52;16.02;;;13.02;;
1685;SDS011;840;47.980;7.830;2023-03-01T03:39:26;15.53;;;12.27;;
1685;SDS011;840;47.980;7.830;2023-03-01T03:42:12;20.80;;;14.20;;
1685;SDS011;840;47.980;7.830;2023-03-01T03:44:45;13.20;;;11.60;;
1685;SDS011;840;47.980;7.830;2023-03-01T03:47:42;17.80;;;12.50;;
1685;SDS011;840;47.980;7.830;2023-03-01T03:50:18;17.20;;;13.37;;
1685;SDS011;840;47.980;7.830;2023-03-01T03:52:54;14.13;;;12.73;;
1685;SDS011;840;47.980;7.830;2023-03-01T03:55:25;19.33;;;13.70;;
1685;SDS011;840;47.980;7.830;2023-03-01T03:58:00;13.52;;;12.18;;
1685;SDS011;840;47.980;7.830;2023-03-01T04:00:32;15.33;;;13.33;;
1685;SDS011;840;47.980;7.830;2023-03-01T04:03:18;18.33;;;14.90;;
1685;SDS011;840;47.980;7.830;2023-03-01T04:05:51;17.97;;;13.33;;
1685;SDS011;840;47.980;7.830;2023-03-01T04:08:20;20.80;;;12.77;;
1685;SDS011;840;47.980;7.830;2023-03-01T04:10:57;16.70;;;13.67;;
1685;SDS011;840;47.980;7.830;2023-03-01T04:13:48;17.10;;;13.00;;
1685;SDS011;840;47.980;7.830;2023-03-01T04:16:26;16.70;;;13.53;;
1685;SDS011;840;47.980;7.830;2023-03-01T04:19:05;15.77;;;12.30;;
1685;SDS011;840;47.980;7.830;2023-03-01T04:21:40;17.37;;;13.10;;
1685;SDS011;840;47.980;7.830;2023-03-01T04:24:16;17.58;;;14.18;;
1685;SDS011;840;47.980;7.830;2023-03-01T04:26:59;14.87;;;13.30;;
1685;SDS011;840;47.980;7.830;2023-03-01T04:29:34;18.70;;;15.15;;
1685;SDS011;840;47.980;7.830;2023-03-01T04:32:12;18.23;;;14.30;;
1685;SDS011;840;47.980;7.830;2023-03-01T04:37:49;15.33;;;13.03;;
1685;SDS011;840;47.980;7.830;2023-03-01T04:40:23;14.77;;;13.20;;
1685;SDS011;840;47.980;7.830;2023-03-01T04:42:51;20.80;;;15.27;;
1685;SDS011;840;47.980;7.830;2023-03-01T04:45:29;17.57;;;13.83;;
1685;SDS011;840;47.980;7.830;2023-03-01T04:48:08;15.50;;;13.27;;
1685;SDS011;840;47.980;7.830;2023-03-01T04:50:54;18.30;;;13.60;;
1685;SDS011;840;47.980;7.830;2023-03-01T04:53:39;21.73;;;15.77;;
1685;SDS011;840;47.980;7.830;2023-03-01T04:56:12;19.90;;;14.10;;
1685;SDS011;840;47.980;7.830;2023-03-01T04:58:52;16.27;;;13.70;;
1685;SDS011;840;47.980;7.830;2023-03-01T05:01:34;16.43;;;12.63;;
1685;SDS011;840;47.980;7.830;2023-03-01T05:04:21;17.43;;;14.50;;
1685;SDS011;840;47.980;7.830;2023-03-01T05:06:59;19.60;;;13.90;;
1685;SDS011;840;47.980;7.830;2023-03-01T05:09:34;20.50;;;14.73;;
1685;SDS011;840;47.980;7.830;2023-03-01T05:12:15;19.20;;;14.40;;
1685;SDS011;840;47.980;7.830;2023-03-01T05:14:41;17.97;;;13.80;;
1685;SDS011;840;47.980;7.830;2023-03-01T05:17:16;15.17;;;13.57;;
1685;SDS011;840;47.980;7.830;2023-03-01T05:19:49;18.67;;;14.40;;
1685;SDS011;840;47.980;7.830;2023-03-01T05:22:23;18.23;;;14.77;;
1685;SDS011;840;47.980;7.830;2023-03-01T05:24:52;20.30;;;15.80;;
1685;SDS011;840;47.980;7.830;2023-03-01T05:27:23;17.90;;;14.40;;
1685;SDS011;840;47.980;7.830;2023-03-01T05:29:56;23.67;;;15.70;;
1685;SDS011;840;47.980;7.830;2023-03-01T05:32:43;22.70;;;16.60;;
1685;SDS011;840;47.980;7.830;2023-03-01T05:35:23;22.00;;;16.07;;
1685;SDS011;840;47.980;7.830;2023-03-01T05:37:55;18.80;;;13.87;;
1685;SDS011;840;47.980;7.830;2023-03-01T05:40:34;18.13;;;14.23;;
1685;SDS011;840;47.980;7.830;2023-03-01T05:43:02;17.47;;;14.47;;
1685;SDS011;840;47.980;7.830;2023-03-01T05:45:37;21.97;;;15.30;;
1685;SDS011;840;47.980;7.830;2023-03-01T05:48:10;18.50;;;14.83;;
1685;SDS011;840;47.980;7.830;2023-03-01T05:50:42;18.07;;;13.83;;
1685;SDS011;840;47.980;7.830;2023-03-01T05:53:27;18.67;;;13.73;;
1685;SDS011;840;47.980;7.830;2023-03-01T05:55:57;22.10;;;16.70;;
1685;SDS011;840;47.980;7.830;2023-03-01T05:58:25;23.80;;;15.27;;
1685;SDS011;840;47.980;7.830;2023-03-01T06:00:58;19.63;;;14.57;;
1685;SDS011;840;47.980;7.830;2023-03-01T06:03:38;21.87;;;14.30;;
1685;SDS011;840;47.980;7.830;2023-03-01T06:06:06;17.27;;;14.80;;
1685;SDS011;840;47.980;7.830;2023-03-01T06:08:36;17.40;;;14.40;;
1685;SDS011;840;47.980;7.830;2023-03-01T06:11:10;21.70;;;15.77;;
1685;SDS011;840;47.980;7.830;2023-03-01T06:13:52;19.60;;;15.40;;
1685;SDS011;840;47.980;7.830;2023-03-01T06:16:24;22.33;;;14.67;;
1685;SDS011;840;47.980;7.830;2023-03-01T06:19:08;22.60;;;14.53;;
1685;SDS011;840;47.980;7.830;2023-03-01T06:21:41;17.75;;;13.63;;
1685;SDS011;840;47.980;7.830;2023-03-01T06:27:25;20.13;;;15.20;;
1685;SDS011;840;47.980;7.830;2023-03-01T06:30:00;18.45;;;14.82;;
1685;SDS011;840;47.980;7.830;2023-03-01T06:32:30;18.97;;;14.13;;
1685;SDS011;840;47.980;7.830;2023-03-01T06:34:58;19.15;;;14.25;;
1685;SDS011;840;47.980;7.830;2023-03-01T06:38:12;18.20;;;15.60;;
1685;SDS011;840;47.980;7.830;2023-03-01T06:40:46;22.80;;;16.73;;
1685;SDS011;840;47.980;7.830;2023-03-01T06:43:20;20.57;;;15.30;;
1685;SDS011;840;47.980;7.830;2023-03-01T06:46:05;20.43;;;14.40;;
1685;SDS011;840;47.980;7.830;2023-03-01T06:48:34;23.13;;;15.07;;
1685;SDS011;840;47.980;7.830;2023-03-01T06:51:14;20.48;;;16.00;;
1685;SDS011;840;47.980;7.830;2023-03-01T06:53:50;26.95;;;17.65;;
1685;SDS011;840;47.980;7.830;2023-03-01T06:56:28;23.10;;;16.67;;
1685;SDS011;840;47.980;7.830;2023-03-01T06:59:08;18.35;;;13.27;;
1685;SDS011;840;47.980;7.830;2023-03-01T07:01:47;19.30;;;16.60;;
1685;SDS011;840;47.980;7.830;2023-03-01T07:04:14;17.10;;;15.07;;
1685;SDS011;840;47.980;7.830;2023-03-01T07:06:44;21.80;;;14.70;;
1685;SDS011;840;47.980;7.830;2023-03-01T07:09:21;21.67;;;15.33;;
1685;SDS011;840;47.980;7.830;2023-03-01T07:11:50;20.47;;;14.63;;
1685;SDS011;840;47.980;7.830;2023-03-01T07:14:19;19.60;;;15.43;;
1685;SDS011;840;47.980;7.830;2023-03-01T07:17:05;18.53;;;16.63;;
1685;SDS011;840;47.980;7.830;2023-03-01T07:19:35;20.87;;;14.83;;
1685;SDS011;840;47.980;7.830;2023-03-01T07:22:04;31.13;;;16.23;;
1685;SDS011;840;47.980;7.830;2023-03-01T07:24:36;24.23;;;15.90;;
1685;SDS011;840;47.980;7.830;2023-03-01T07:27:05;21.23;;;15.67;;
1685;SDS011;840;47.980;7.830;2023-03-01T07:29:33;22.20;;;15.63;;
1685;SDS011;840;47.980;7.830;2023-03-01T07:32:08;17.17;;;13.50;;
1685;SDS011;840;47.980;7.830;2023-03-01T07:34:51;22.77;;;17.50;;
1685;SDS011;840;47.980;7.830;2023-03-01T07:37:40;23.50;;;16.53;;
1685;SDS011;840;47.980;7.830;2023-03-01T07:40:12;21.07;;;16.33;;
1685;SDS011;840;47.980;7.830;2023-03-01T07:42:49;21.23;;;16.30;;
1685;SDS011;840;47.980;7.830;2023-03-01T07:45:26;20.90;;;18.07;;
1685;SDS011;840;47.980;7.830;2023-03-01T07:47:58;20.73;;;15.10;;
1685;SDS011;840;47.980;7.830;2023-03-01T07:50:30;20.03;;;15.50;;
1685;SDS011;840;47.980;7.830;2023-03-01T07:52:59;16.77;;;14.00;;
1685;SDS011;840;47.980;7.830;2023-03-01T07:55:38;22.30;;;14.80;;
1685;SDS011;840;47.980;7.830;2023-03-01T07:58:09;22.53;;;17.87;;
1685;SDS011;840;47.980;7.830;2023-03-01T08:00:42;22.33;;;16.87;;
1685;SDS011;840;47.980;7.830;2023-03-01T08:03:11;19.57;;;15.80;;
1685;SDS011;840;47.980;7.830;2023-03-01T08:05:41;18.97;;;16.00;;
1685;SDS011;840;47.980;7.830;2023-03-01T08:08:12;20.77;;;16.67;;
1685;SDS011;840;47.980;7.830;2023-03-01T08:10:51;20.70;;;15.30;;
1685;SDS011;840;47.980;7.830;2023-03-01T08:16:13;20.77;;;14.67;;
1685;SDS011;840;47.980;7.830;2023-03-01T08:18:45;22.10;;;17.20;;
1685;SDS011;840;47.980;7.830;2023-03-01T08:21:14;18.23;;;16.30;;
1685;SDS011;840;47.980;7.830;2023-03-01T08:23:42;17.27;;;15.13;;
1685;SDS011;840;47.980;7.830;2023-03-01T08:26:10;21.90;;;16.57;;
1685;SDS011;840;47.980;7.830;2023-03-01T08:28:40;21.37;;;15.53;;
1685;SDS011;840;47.980;7.830;2023-03-01T08:31:17;24.70;;;17.27;;
1685;SDS011;840;47.980;7.830;2023-03-01T08:33:46;21.27;;;16.20;;
1685;SDS011;840;47.980;7.830;2023-03-01T08:36:15;28.47;;;16.30;;
1685;SDS011;840;47.980;7.830;2023-03-01T08:38:43;23.37;;;18.53;;
1685;SDS011;840;47.980;7.830;2023-03-01T08:41:10;37.43;;;25.20;;
1685;SDS011;840;47.980;7.830;2023-03-01T08:43:37;24.57;;;17.67;;
1685;SDS011;840;47.980;7.830;2023-03-01T08:46:08;20.37;;;15.43;;
1685;SDS011;840;47.980;7.830;2023-03-01T08:48:35;26.73;;;18.00;;
1685;SDS011;840;47.980;7.830;2023-03-01T08:51:06;19.70;;;16.87;;
1685;SDS011;840;47.980;7.830;2023-03-01T08:53:35;20.93;;;18.80;;
1685;SDS011;840;47.980;7.830;2023-03-01T08:56:11;23.00;;;18.63;;
1685;SDS011;840;47.980;7.830;2023-03-01T08:58:46;21.20;;;17.50;;
1685;SDS011;840;47.980;7.830;2023-03-01T09:01:18;23.83;;;16.47;;
1685;SDS011;840;47.980;7.830;2023-03-01T09:03:59;23.40;;;18.00;;
1685;SDS011;840;47.980;7.830;2023-03-01T09:06:26;20.20;;;16.73;;
1685;SDS011;840;47.980;7.830;2023-03-01T09:08:57;20.10;;;16.53;;
1685;SDS011;840;47.980;7.830;2023-03-01T09:11:24;27.70;;;17.07;;
1685;SDS011;840;47.980;7.830;2023-03-01T09:13:55;23.50;;;18.03;;
1685;SDS011;840;47.980;7.830;2023-03-01T09:16:23;21.80;;;17.23;;
1685;SDS011;840;47.980;7.830;2023-03-01T09:18:51;21.07;;;16.60;;
1685;SDS011;840;47.980;7.830;2023-03-01T09:21:20;22.03;;;18.47;;
1685;SDS011;840;47.980;7.830;2023-03-01T09:23:49;30.93;;;18.87;;
1685;SDS011;840;47.980;7.830;2023-03-01T09:26:16;18.80;;;15.57;;
1685;SDS011;840;47.980;7.830;2023-03-01T09:28:44;20.10;;;15.93;;
1685;SDS011;840;47.980;7.830;2023-03-01T09:31:11;20.40;;;16.23;;
1685;SDS011;840;47.980;7.830;2023-03-01T09:33:45;18.13;;;15.97;;
1685;SDS011;840;47.980;7.830;2023-03-01T09:36:13;21.20;;;17.47;;
1685;SDS011;840;47.980;7.830;2023-03-01T09:38:41;28.07;;;18.20;;
1685;SDS011;840;47.980;7.830;2023-03-01T09:41:09;23.50;;;15.70;;
1685;SDS011;840;47.980;7.830;2023-03-01T09:43:59;21.70;;;14.90;;
1685;SDS011;840;47.980;7.830;2023-03-01T09:46:30;22.83;;;15.30;;
1685;SDS011;840;47.980;7.830;2023-03-01T09:49:04;22.90;;;17.80;;
1685;SDS011;840;47.980;7.830;2023-03-01T09:51:36;23.90;;;18.23;;
1685;SDS011;840;47.980;7.830;2023-03-01T09:54:05;22.90;;;16.17;;
1685;SDS011;840;47.980;7.830;2023-03-01T09:56:37;22.37;;;17.50;;
1685;SDS011;840;47.980;7.830;2023-03-01T09:59:11;21.07;;;16.50;;
1685;SDS011;840;47.980;7.830;2023-03-01T10:01:48;22.90;;;17.37;;
1685;SDS011;840;47.980;7.830;2023-03-01T10:04:34;21.70;;;16.73;;
1685;SDS011;840;47.980;7.830;2023-03-01T10:07:12;24.07;;;16.20;;
1685;SDS011;840;47.980;7.830;2023-03-01T10:09:57;20.77;;;17.43;;
1685;SDS011;840;47.980;7.830;2023-03-01T10:12:31;21.30;;;16.13;;
1685;SDS011;840;47.980;7.830;2023-03-01T10:15:02;20.37;;;16.20;;
1685;SDS011;840;47.980;7.830;2023-03-01T10:17:36;24.37;;;17.80;;
1685;SDS011;840;47.980;7.830;2023-03-01T10:20:16;21.77;;;17.03;;
1685;SDS011;840;47.980;7.830;2023-03-01T10:22:47;20.93;;;16.40;;
1685;SDS011;840;47.980;7.830;2023-03-01T10:25:30;18.90;;;16.80;;
1685;SDS011;840;47.980;7.830;2023-03-01T10:28:10;20.03;;;16.40;;
1685;SDS011;840;47.980;7.830;2023-03-01T10:30:46;20.20;;;18.03;;
1685;SDS011;840;47.980;7.830;2023-03-01T10:33:17;21.53;;;15.40;;
1685;SDS011;840;47.980;7.830;2023-03-01T10:35:53;21.13;;;16.67;;
1685;SDS011;840;47.980;7.830;2023-03-01T10:38:21;30.10;;;18.10;;
1685;SDS011;840;47.980;7.830;2023-03-01T10:40:53;24.30;;;16.73;;
1685;SDS011;840;47.980;7.830;2023-03-01T10:43:22;25.67;;;18.50;;
1685;SDS011;840;47.980;7.830;2023-03-01T10:45:50;22.17;;;16.70;;
1685;SDS011;840;47.980;7.830;2023-03-01T10:48:18;19.57;;;16.80;;
1685;SDS011;840;47.980;7.830;2023-03-01T10:50:49;24.90;;;17.43;;
1685;SDS011;840;47.980;7.830;2023-03-01T10:53:23;24.63;;;18.50;;
1685;SDS011;840;47.980;7.830;2023-03-01T10:55:58;21.30;;;16.37;;
1685;SDS011;840;47.980;7.830;2023-03-01T10:58:26;25.10;;;17.87;;
1685;SDS011;840;47.980;7.830;2023-03-01T11:00:55;22.50;;;16.93;;
1685;SDS011;840;47.980;7.830;2023-03-01T11:03:23;22.17;;;16.77;;
1685;SDS011;840;47.980;7.830;2023-03-01T11:05:57;23.17;;;17.67;;
1685;SDS011;840;47.980;7.830;2023-03-01T11:08:31;19.53;;;17.43;;
1685;SDS011;840;47.980;7.830;2023-03-01T11:11:04;28.90;;;18.60;;
1685;SDS011;840;47.980;7.830;2023-03-01T11:13:38;23.50;;;18.77;;
1685;SDS011;840;47.980;7.830;2023-03-01T11:16:17;19.73;;;14.93;;
1685;SDS011;840;47.980;7.830;2023-03-01T11:18:58;20.03;;;16.57;;
1685;SDS011;840;47.980;7.830;2023-03-01T11:21:28;22.60;;;17.70;;
1685;SDS011;840;47.980;7.830;2023-03-01T11:24:01;23.33;;;16.90;;
1685;SDS011;840;47.980;7.830;2023-03-01T11:26:30;19.87;;;15.93;;
1685;SDS011;840;47.980;7.830;2023-03-01T11:29:04;21.73;;;16.43;;
1685;SDS011;840;47.980;7.830;2023-03-01T11:31:37;24.73;;;18.30;;
1685;SDS011;840;47.980;7.830;2023-03-01T11:34:09;29.03;;;17.83;;
1685;SDS011;840;47.980;7.830;2023-03-01T11:36:40;21.70;;;17.37;;
1685;SDS011;840;47.980;7.830;2023-03-01T11:39:16;22.13;;;17.43;;
1685;SDS011;840;47.980;7.830;2023-03-01T11:41:47;24.00;;;18.87;;
1685;SDS011;840;47.980;7.830;2023-03-01T11:44:20;23.53;;;16.73;;
1685;SDS011;840;47.980;7.830;2023-03-01T11:46:57;25.80;;;17.90;;
1685;SDS011;840;47.980;7.830;2023-03-01T11:52:37;20.33;;;16.13;;
1685;SDS011;840;47.980;7.830;2023-03-01T11:55:23;24.70;;;17.60;;
1685;SDS011;840;47.980;7.830;2023-03-01T11:58:05;23.83;;;16.27;;
1685;SDS011;840;47.980;7.830;2023-03-01T12:00:44;23.70;;;17.07;;
1685;SDS011;840;47.980;7.830;2023-03-01T12:03:30;23.50;;;17.63;;
1685;SDS011;840;47.980;7.830;2023-03-01T12:09:02;18.43;;;15.80;;
1685;SDS011;840;47.980;7.830;2023-03-01T12:11:50;22.70;;;16.40;;
1685;SDS011;840;47.980;7.830;2023-03-01T12:14:38;20.17;;;16.17;;
1685;SDS011;840;47.980;7.830;2023-03-01T12:17:29;24.40;;;16.50;;
1685;SDS011;840;47.980;7.830;2023-03-01T12:20:12;22.40;;;15.87;;
1685;SDS011;840;47.980;7.830;2023-03-01T12:22:50;21.13;;;16.57;;
1685;SDS011;840;47.980;7.830;2023-03-01T12:25:34;21.43;;;17.13;;
1685;SDS011;840;47.980;7.830;2023-03-01T12:28:12;24.67;;;18.33;;
1685;SDS011;840;47.980;7.830;2023-03-01T12:31:07;19.30;;;16.10;;
1685;SDS011;840;47.980;7.830;2023-03-01T12:33:51;19.30;;;16.63;;
1685;SDS011;840;47.980;7.830;2023-03-01T12:36:39;19.53;;;15.43;;
1685;SDS011;840;47.980;7.830;2023-03-01T12:39:34;20.07;;;15.60;;
1685;SDS011;840;47.980;7.830;2023-03-01T12:42:17;19.50;;;16.53;;
1685;SDS011;840;47.980;7.830;2023-03-01T12:44:59;25.30;;;18.10;;
1685;SDS011;840;47.980;7.830;2023-03-01T12:47:41;23.83;;;15.50;;
1685;SDS011;840;47.980;7.830;2023-03-01T12:50:26;19.97;;;14.70;;
1685;SDS011;840;47.980;7.830;2023-03-01T12:53:02;19.00;;;15.47;;
1685;SDS011;840;47.980;7.830;2023-03-01T12:55:29;20.97;;;14.27;;
1685;SDS011;840;47.980;7.830;2023-03-01T12:58:02;14.60;;;12.93;;
1685;SDS011;840;47.980;7.830;2023-03-01T13:00:37;19.60;;;14.57;;
1685;SDS011;840;47.980;7.830;2023-03-01T13:03:14;16.83;;;13.70;;
1685;SDS011;840;47.980;7.830;2023-03-01T13:05:56;14.53;;;12.10;;
1685;SDS011;840;47.980;7.830;2023-03-01T13:08:33;19.67;;;13.17;;
1685;SDS011;840;47.980;7.830;2023-03-01T13:11:06;14.20;;;11.67;;
1685;SDS011;840;47.980;7.830;2023-03-01T13:13:41;13.87;;;12.17;;
1685;SDS011;840;47.980;7.830;2023-03-01T13:19:17;13.53;;;11.70;;
1685;SDS011;840;47.980;7.830;2023-03-01T13:21:46;16.83;;;13.57;;
1685;SDS011;840;47.980;7.830;2023-03-01T13:24:25;18.75;;;14.88;;
1685;SDS011;840;47.980;7.830;2023-03-01T13:27:21;14.50;;;12.13;;
1685;SDS011;840;47.980;7.830;2023-03-01T13:29:55;14.70;;;12.40;;
1685;SDS011;840;47.980;7.830;2023-03-01T13:32:25;16.30;;;12.90;;
1685;SDS011;840;47.980;7.830;2023-03-01T13:34:58;15.27;;;12.33;;
1685;SDS011;840;47.980;7.830;2023-03-01T13:37:30;16.23;;;12.60;;
1685;SDS011;840;47.980;7.830;2023-03-01T13:40:04;20.30;;;13.53;;
1685;SDS011;840;47.980;7.830;2023-03-01T13:42:50;14.90;;;11.53;;
1685;SDS011;840;47.980;7.830;2023-03-01T13:45:22;17.17;;;12.97;;
1685;SDS011;840;47.980;7.830;2023-03-01T13:47:58;15.20;;;11.40;;
1685;SDS011;840;47.980;7.830;2023-03-01T13:50:32;15.80;;;13.30;;
1685;SDS011;840;47.980;7.830;2023-03-01T13:53:04;14.60;;;12.20;;
1685;SDS011;840;47.980;7.830;2023-03-01T13:55:36;17.73;;;11.60;;
1685;SDS011;840;47.980;7.830;2023-03-01T13:58:14;15.77;;;12.43;;
1685;SDS011;840;47.980;7.830;2023-03-01T14:00:44;13.07;;;11.53;;
1685;SDS011;840;47.980;7.830;2023-03-01T14:03:14;13.87;;;12.03;;
1685;SDS011;840;47.980;7.830;2023-03-01T14:05:44;16.03;;;11.80;;
1685;SDS011;840;47.980;7.830;2023-03-01T14:08:26;14.67;;;12.23;;
1685;SDS011;840;47.980;7.830;2023-03-01T14:10:58;12.73;;;11.30;;
1685;SDS011;840;47.980;7.830;2023-03-01T14:13:39;17.63;;;12.50;;
1685;SDS011;840;47.980;7.830;2023-03-01T14:16:19;15.97;;;12.10;;
1685;SDS011;840;47.980;7.830;2023-03-01T14:19:00;12.93;;;11.53;;
1685;SDS011;840;47.980;7.830;2023-03-01T14:21:39;15.77;;;13.13;;
1685;SDS011;840;47.980;7.830;2023-03-01T14:24:13;13.47;;;12.07;;
1685;SDS011;840;47.980;7.830;2023-03-01T14:26:43;14.73;;;12.30;;
1685;SDS011;840;47.980;7.830;2023-03-01T14:29:23;14.87;;;13.03;;
1685;SDS011;840;47.980;7.830;2023-03-01T14:31:50;14.90;;;11.90;;
1685;SDS011;840;47.980;7.830;2023-03-01T14:34:19;15.97;;;12.63;;
1685;SDS011;840;47.980;7.830;2023-03-01T14:36:48;14.43;;;11.93;;
1685;SDS011;840;47.980;7.830;2023-03-01T14:39:16;16.80;;;12.67;;
1685;SDS011;840;47.980;7.830;2023-03-01T14:41:44;12.07;;;10.83;;
1685;SDS011;840;47.980;7.830;2023-03-01T14:44:14;14.83;;;13.33;;
1685;SDS011;840;47.980;7.830;2023-03-01T14:46:51;13.97;;;12.40;;
1685;SDS011;840;47.980;7.830;2023-03-01T14:49:20;15.63;;;12.63;;
1685;SDS011;840;47.980;7.830;2023-03-01T14:51:52;14.50;;;12.63;;
1685;SDS011;840;47.980;7.830;2023-03-01T14:54:24;13.40;;;11.70;;
1685;SDS011;840;47.980;7.830;2023-03-01T14:56:53;14.70;;;13.20;;
1685;SDS011;840;47.980;7.830;2023-03-01T14:59:25;18.93;;;13.23;;
1685;SDS011;840;47.980;7.830;2023-03-01T15:01:53;14.20;;;12.23;;
1685;SDS011;840;47.980;7.830;2023-03-01T15:04:22;16.47;;;12.90;;
1685;SDS011;840;47.980;7.830;2023-03-01T15:06:52;17.47;;;12.83;;
1685;SDS011;840;47.980;7.830;2023-03-01T15:09:20;16.13;;;12.07;;
1685;SDS011;840;47.980;7.830;2023-03-01T15:11:48;17.43;;;13.37;;
1685;SDS011;840;47.980;7.830;2023-03-01T15:14:25;14.33;;;12.60;;
1685;SDS011;840;47.980;7.830;2023-03-01T15:16:54;16.23;;;13.70;;
1685;SDS011;840;47.980;7.830;2023-03-01T15:19:23;14.63;;;13.13;;
1685;SDS011;840;47.980;7.830;2023-03-01T15:21:55;14.20;;;11.73;;
1685;SDS011;840;47.980;7.830;2023-03-01T15:24:24;22.07;;;15.93;;
1685;SDS011;840;47.980;7.830;2023-03-01T15:26:53;22.00;;;17.57;;
1685;SDS011;840;47.980;7.830;2023-03-01T15:29:23;25.93;;;18.10;;
1685;SDS011;840;47.980;7.830;2023-03-01T15:31:55;22.43;;;17.60;;
1685;SDS011;840;47.980;7.830;2023-03-01T15:34:24;30.07;;;18.60;;
1685;SDS011;840;47.980;7.830;2023-03-01T15:36:54;21.20;;;17.73;;
1685;SDS011;840;47.980;7.830;2023-03-01T15:39:29;22.53;;;18.83;;
1685;SDS011;840;47.980;7.830;2023-03-01T15:42:02;22.83;;;18.87;;
1685;SDS011;840;47.980;7.830;2023-03-01T15:44:33;23.50;;;19.00;;
1685;SDS011;840;47.980;7.830;2023-03-01T15:47:03;20.20;;;18.07;;
1685;SDS011;840;47.980;7.830;2023-03-01T15:49:35;24.50;;;17.23;;
1685;SDS011;840;47.980;7.830;2023-03-01T15:52:08;22.67;;;18.53;;
1685;SDS011;840;47.980;7.830;2023-03-01T15:54:39;28.10;;;17.80;;
1685;SDS011;840;47.980;7.830;2023-03-01T15:57:08;26.03;;;20.50;;
1685;SDS011;840;47.980;7.830;2023-03-01T15:59:38;24.90;;;19.97;;
1685;SDS011;840;47.980;7.830;2023-03-01T16:02:08;22.97;;;18.60;;